Time;durP1;ratioP1;P1;durP2;ratioP2;P2;SDS_P1;SDS_P2;PMS_P1;PMS_P2;Temp;Humidity;BMP_temperature;BMP_pressure;BME280_temperature;BME280_humidity;BME280_pressure;Samples;Min_cycle;Max_cycle;Signal;HPM_P1;HPM_P2
2023/05/25 00:00:32;;;;;;;10.63;3.65;;;;;;;;;;5051441;28;20389;-42
2023/05/25 00:02:59;;;;;;;8.73;3.65;;;;;;;;;;5051384;28;20036;-42
2023/05/25 00:05:26;;;;;;;11.98;4.65;;;;;;;;;;5051505;28;20155;-43
2023/05/25 00:07:53;;;;;;;6.68;3.50;;;;;;;;;;5050232;28;20029;-42
2023/05/25 00:10:19;;;;;;;8.82;3.60;;;;;;;;;;5051329;28;20025;-43
2023/05/25 00:12:45;;;;;;;6.82;3.22;;;;;;;;;;5051592;28;20128;-42
2023/05/25 00:15:11;;;;;;;10.70;4.00;;;;;;;;;;5051582;28;20040;-42
2023/05/25 00:17:37;;;;;;;10.68;3.53;;;;;;;;;;5051625;28;20037;-42
2023/05/25 00:20:06;;;;;;;9.55;3.80;;;;;;;;;;5051329;28;20500;-42
2023/05/25 00:22:38;;;;;;;7.18;3.60;;;;;;;;;;5051552;28;20389;-42
2023/05/25 00:25:05;;;;;;;5.95;2.95;;;;;;;;;;5051245;28;20035;-42
2023/05/25 00:27:31;;;;;;;7.38;3.67;;;;;;;;;;5051170;28;20048;-42
2023/05/25 00:29:57;;;;;;;8.38;3.95;;;;;;;;;;5051437;28;20053;-42
2023/05/25 00:32:23;;;;;;;7.97;3.92;;;;;;;;;;5055138;28;20104;-42
2023/05/25 00:34:49;;;;;;;7.15;3.40;;;;;;;;;;5054884;28;20025;-42
2023/05/25 00:37:15;;;;;;;6.60;3.20;;;;;;;;;;5054912;28;20033;-40
2023/05/25 00:39:41;;;;;;;9.65;3.42;;;;;;;;;;5055327;28;20049;-42
2023/05/25 00:42:07;;;;;;;5.80;3.20;;;;;;;;;;5053974;28;20078;-42
2023/05/25 00:44:34;;;;;;;7.50;3.53;;;;;;;;;;5055050;28;20021;-43
2023/05/25 00:47:03;;;;;;;6.88;3.17;;;;;;;;;;5055159;28;20032;-43
2023/05/25 00:49:30;;;;;;;8.20;3.13;;;;;;;;;;5055794;28;20763;-38
2023/05/25 00:51:57;;;;;;;9.77;3.50;;;;;;;;;;5056531;28;20099;-39
2023/05/25 00:54:23;;;;;;;9.52;3.38;;;;;;;;;;5056509;28;20036;-38
2023/05/25 00:56:55;;;;;;;6.35;2.80;;;;;;;;;;5056315;28;20025;-37
2023/05/25 00:59:39;;;;;;;7.22;3.95;;;;;;;;;;5056255;28;20032;-39
2023/05/25 01:02:07;;;;;;;6.45;3.33;;;;;;;;;;5056115;28;20116;-37
2023/05/25 01:04:35;;;;;;;9.23;3.00;;;;;;;;;;5055932;28;20092;-38
2023/05/25 01:07:02;;;;;;;8.27;3.10;;;;;;;;;;5056037;28;20032;-38
2023/05/25 01:09:29;;;;;;;6.53;3.10;;;;;;;;;;5056132;28;20469;-39
2023/05/25 01:11:55;;;;;;;4.78;2.70;;;;;;;;;;5056012;28;20112;-39
2023/05/25 01:14:23;;;;;;;9.40;3.38;;;;;;;;;;5056308;28;20036;-35
2023/05/25 01:16:50;;;;;;;8.25;3.47;;;;;;;;;;5055872;28;20119;-36
2023/05/25 01:19:17;;;;;;;6.45;3.35;;;;;;;;;;5055679;28;20025;-36
2023/05/25 01:21:50;;;;;;;9.35;3.13;;;;;;;;;;5055858;28;20466;-40
2023/05/25 01:24:26;;;;;;;8.35;3.13;;;;;;;;;;5055755;28;20021;-38
2023/05/25 01:26:57;;;;;;;8.38;3.10;;;;;;;;;;5056271;28;20017;-42
2023/05/25 01:29:24;;;;;;;4.53;2.70;;;;;;;;;;5054606;28;20025;-42
2023/05/25 01:31:51;;;;;;;7.63;3.55;;;;;;;;;;5054435;28;20518;-42
2023/05/25 01:34:17;;;;;;;8.88;2.95;;;;;;;;;;5054371;28;20141;-42
2023/05/25 01:36:43;;;;;;;7.50;2.92;;;;;;;;;;5054315;28;20071;-42
2023/05/25 01:39:10;;;;;;;7.82;2.88;;;;;;;;;;5053824;28;20045;-42
2023/05/25 01:41:35;;;;;;;7.05;3.08;;;;;;;;;;5053066;28;20029;-42
2023/05/25 01:44:01;;;;;;;7.43;2.80;;;;;;;;;;5054148;28;20033;-42
2023/05/25 01:46:30;;;;;;;6.10;3.20;;;;;;;;;;5054033;28;20036;-42
2023/05/25 01:49:02;;;;;;;7.43;3.20;;;;;;;;;;5053890;28;20060;-42
2023/05/25 01:51:28;;;;;;;8.23;3.45;;;;;;;;;;5053999;28;20021;-42
2023/05/25 01:53:58;;;;;;;5.22;3.08;;;;;;;;;;5053931;28;20029;-43
2023/05/25 01:56:25;;;;;;;5.60;2.78;;;;;;;;;;5053727;28;20033;-42
2023/05/25 01:58:51;;;;;;;6.35;3.20;;;;;;;;;;5053877;28;20025;-42
2023/05/25 02:01:18;;;;;;;6.32;2.92;;;;;;;;;;5053434;28;20025;-42
2023/05/25 02:03:47;;;;;;;11.98;3.55;;;;;;;;;;5053715;28;20554;-43
2023/05/25 02:06:15;;;;;;;8.10;2.83;;;;;;;;;;5053652;28;20484;-42
2023/05/25 02:08:42;;;;;;;8.90;3.35;;;;;;;;;;5053571;28;20036;-42
2023/05/25 02:11:09;;;;;;;7.88;3.50;;;;;;;;;;5053450;28;20096;-42
2023/05/25 02:13:35;;;;;;;7.97;3.00;;;;;;;;;;5053486;28;20013;-42
2023/05/25 02:16:01;;;;;;;6.40;3.15;;;;;;;;;;5053495;28;20032;-42
2023/05/25 02:18:27;;;;;;;5.45;3.17;;;;;;;;;;5053497;28;20048;-42
2023/05/25 02:20:54;;;;;;;5.05;3.22;;;;;;;;;;5053421;28;20025;-42
2023/05/25 02:23:20;;;;;;;6.53;2.78;;;;;;;;;;5053320;28;20028;-43
2023/05/25 02:25:46;;;;;;;7.25;2.83;;;;;;;;;;5053095;28;20021;-43
2023/05/25 02:28:12;;;;;;;8.57;3.20;;;;;;;;;;5053289;28;20035;-43
2023/05/25 02:30:38;;;;;;;5.70;3.08;;;;;;;;;;5053490;28;20068;-43
2023/05/25 02:33:04;;;;;;;7.55;3.35;;;;;;;;;;5053198;28;20031;-43
2023/05/25 02:35:30;;;;;;;8.77;3.20;;;;;;;;;;5053044;28;20466;-43
2023/05/25 02:37:56;;;;;;;8.43;3.30;;;;;;;;;;5051846;28;20127;-43
2023/05/25 02:40:22;;;;;;;6.80;2.97;;;;;;;;;;5052712;28;20076;-43
2023/05/25 02:42:48;;;;;;;5.18;3.03;;;;;;;;;;5053004;28;20517;-42
2023/05/25 02:45:14;;;;;;;8.57;3.40;;;;;;;;;;5052936;28;20017;-42
2023/05/25 02:47:40;;;;;;;5.72;2.90;;;;;;;;;;5052839;28;20615;-42
2023/05/25 02:50:06;;;;;;;7.55;3.00;;;;;;;;;;5052828;28;20060;-42
2023/05/25 02:52:32;;;;;;;7.85;3.80;;;;;;;;;;5052552;28;20170;-42
2023/05/25 02:54:58;;;;;;;5.55;3.22;;;;;;;;;;5052585;28;20108;-42
2023/05/25 02:57:24;;;;;;;7.32;3.30;;;;;;;;;;5052686;28;20025;-42
2023/05/25 02:59:51;;;;;;;6.32;3.10;;;;;;;;;;5052619;28;20021;-42
2023/05/25 03:02:19;;;;;;;7.55;2.67;;;;;;;;;;5052555;28;20029;-42
2023/05/25 03:04:45;;;;;;;8.23;3.33;;;;;;;;;;5052437;28;20017;-42
2023/05/25 03:07:11;;;;;;;6.28;3.10;;;;;;;;;;5052579;28;20025;-41
2023/05/25 03:09:38;;;;;;;6.32;2.72;;;;;;;;;;5052496;28;20529;-42
2023/05/25 03:12:04;;;;;;;7.80;3.33;;;;;;;;;;5051152;28;20063;-42
2023/05/25 03:14:30;;;;;;;6.65;3.53;;;;;;;;;;5052639;28;20393;-42
2023/05/25 03:16:56;;;;;;;7.68;3.53;;;;;;;;;;5052389;28;20029;-42
2023/05/25 03:19:21;;;;;;;6.45;3.00;;;;;;;;;;5052328;28;20036;-42
2023/05/25 03:21:47;;;;;;;8.05;3.63;;;;;;;;;;5051705;28;20409;-42
2023/05/25 03:24:13;;;;;;;7.78;3.00;;;;;;;;;;5051496;28;20537;-44
2023/05/25 03:26:39;;;;;;;5.05;2.75;;;;;;;;;;5052211;28;20496;-41
2023/05/25 03:29:05;;;;;;;13.57;3.70;;;;;;;;;;5050995;28;20148;-42
2023/05/25 03:31:31;;;;;;;9.10;3.45;;;;;;;;;;5052178;28;20083;-42
2023/05/25 03:33:58;;;;;;;8.70;2.95;;;;;;;;;;5051942;28;20108;-42
2023/05/25 03:36:27;;;;;;;5.40;2.90;;;;;;;;;;5051913;28;20473;-42
2023/05/25 03:38:53;;;;;;;8.73;3.13;;;;;;;;;;5051838;28;20033;-42
2023/05/25 03:41:19;;;;;;;5.88;3.15;;;;;;;;;;5051958;28;20021;-42
2023/05/25 03:43:45;;;;;;;6.43;2.92;;;;;;;;;;5051821;28;20017;-42
2023/05/25 03:46:11;;;;;;;7.03;3.15;;;;;;;;;;5051817;28;20028;-42
2023/05/25 03:48:37;;;;;;;8.35;3.20;;;;;;;;;;5051756;28;20596;-43
2023/05/25 03:51:03;;;;;;;8.18;3.30;;;;;;;;;;5051770;28;20070;-42
2023/05/25 03:53:30;;;;;;;8.05;3.17;;;;;;;;;;5051691;28;20096;-42
2023/05/25 03:55:56;;;;;;;9.15;3.40;;;;;;;;;;5051727;28;20029;-42
2023/05/25 03:58:22;;;;;;;6.75;3.20;;;;;;;;;;5051700;28;20501;-42
2023/05/25 04:00:48;;;;;;;8.23;3.22;;;;;;;;;;5051585;28;20037;-43
2023/05/25 04:03:14;;;;;;;6.13;2.80;;;;;;;;;;5051588;28;20027;-43
2023/05/25 04:05:40;;;;;;;7.03;2.80;;;;;;;;;;5051045;28;20025;-43
2023/05/25 04:08:07;;;;;;;9.13;3.55;;;;;;;;;;5051645;28;20017;-43
2023/05/25 04:10:33;;;;;;;6.00;3.10;;;;;;;;;;5051864;28;20064;-42
2023/05/25 04:12:59;;;;;;;9.57;3.30;;;;;;;;;;5051437;28;20060;-42
2023/05/25 04:15:25;;;;;;;5.97;3.08;;;;;;;;;;5051494;28;20044;-42
2023/05/25 04:17:51;;;;;;;7.25;3.00;;;;;;;;;;5051515;28;20029;-42
2023/05/25 04:20:17;;;;;;;8.00;3.30;;;;;;;;;;5051489;28;20029;-42
2023/05/25 04:22:43;;;;;;;6.90;3.53;;;;;;;;;;5051239;28;20057;-42
2023/05/25 04:25:10;;;;;;;6.82;2.95;;;;;;;;;;5051441;28;20025;-42
2023/05/25 04:27:36;;;;;;;8.95;3.65;;;;;;;;;;5051282;28;20017;-42
2023/05/25 04:30:02;;;;;;;8.18;3.10;;;;;;;;;;5051387;28;20496;-42
2023/05/25 04:32:31;;;;;;;7.00;3.15;;;;;;;;;;5051454;28;20029;-42
2023/05/25 04:34:58;;;;;;;7.90;3.22;;;;;;;;;;5050048;28;20025;-42
2023/05/25 04:37:27;;;;;;;6.40;3.20;;;;;;;;;;5051429;28;20108;-42
2023/05/25 04:39:53;;;;;;;7.03;3.53;;;;;;;;;;5050898;28;20048;-42
2023/05/25 04:42:22;;;;;;;7.85;3.55;;;;;;;;;;5051218;28;20052;-42
2023/05/25 04:44:48;;;;;;;7.30;2.78;;;;;;;;;;5051288;28;20355;-42
2023/05/25 04:47:15;;;;;;;8.38;3.15;;;;;;;;;;5051129;28;20086;-42
2023/05/25 04:49:41;;;;;;;9.27;3.75;;;;;;;;;;5051083;28;20036;-42
2023/05/25 04:52:07;;;;;;;8.55;2.90;;;;;;;;;;5051183;28;20029;-42
2023/05/25 04:54:33;;;;;;;9.90;3.20;;;;;;;;;;5051196;28;20031;-41
2023/05/25 04:57:00;;;;;;;8.18;3.47;;;;;;;;;;5051261;28;20363;-42
2023/05/25 04:59:26;;;;;;;5.40;3.30;;;;;;;;;;5051078;28;20025;-42
2023/05/25 05:01:52;;;;;;;4.90;2.83;;;;;;;;;;5050954;28;20021;-42
2023/05/25 05:04:18;;;;;;;6.28;2.83;;;;;;;;;;5051182;28;20018;-42
2023/05/25 05:06:44;;;;;;;5.95;2.92;;;;;;;;;;5051398;28;20132;-41
2023/05/25 05:09:10;;;;;;;8.02;3.50;;;;;;;;;;5051034;28;20111;-42
2023/05/25 05:11:36;;;;;;;5.60;3.30;;;;;;;;;;5050919;28;20021;-42
2023/05/25 05:14:02;;;;;;;8.27;3.42;;;;;;;;;;5050884;28;20029;-41
2023/05/25 05:16:32;;;;;;;8.10;3.28;;;;;;;;;;5050934;28;20105;-43
2023/05/25 05:18:58;;;;;;;6.53;2.97;;;;;;;;;;5053376;28;20370;-42
2023/05/25 05:21:24;;;;;;;7.10;3.33;;;;;;;;;;5054566;28;20021;-42
2023/05/25 05:23:50;;;;;;;7.68;3.00;;;;;;;;;;5054537;28;20032;-42
2023/05/25 05:26:16;;;;;;;8.23;4.03;;;;;;;;;;5054281;28;20088;-42
2023/05/25 05:28:42;;;;;;;7.40;2.70;;;;;;;;;;5054434;28;20021;-42
2023/05/25 05:31:08;;;;;;;9.00;2.92;;;;;;;;;;5054233;28;20519;-42
2023/05/25 05:33:34;;;;;;;5.80;3.30;;;;;;;;;;5054298;28;20383;-42
2023/05/25 05:36:01;;;;;;;6.85;3.33;;;;;;;;;;5054302;28;20031;-42
2023/05/25 05:38:27;;;;;;;6.68;3.17;;;;;;;;;;5054029;28;20029;-41
2023/05/25 05:40:53;;;;;;;6.28;2.85;;;;;;;;;;5053838;28;20549;-42
2023/05/25 05:43:19;;;;;;;6.43;2.95;;;;;;;;;;5052890;28;20104;-42
2023/05/25 05:45:45;;;;;;;4.28;2.50;;;;;;;;;;5053913;28;20025;-42
2023/05/25 05:48:11;;;;;;;5.88;3.00;;;;;;;;;;5053993;28;20445;-42
2023/05/25 05:50:37;;;;;;;6.32;3.15;;;;;;;;;;5053955;28;20381;-42
2023/05/25 05:53:03;;;;;;;6.60;2.90;;;;;;;;;;5053750;28;20040;-42
2023/05/25 05:55:29;;;;;;;7.15;3.10;;;;;;;;;;5053836;28;20029;-42
2023/05/25 05:57:55;;;;;;;8.20;3.53;;;;;;;;;;5053789;28;20029;-42
2023/05/25 06:00:22;;;;;;;7.22;3.08;;;;;;;;;;5052455;28;20029;-42
2023/05/25 06:02:48;;;;;;;5.53;2.70;;;;;;;;;;5053676;28;20029;-42
2023/05/25 06:05:14;;;;;;;7.10;3.03;;;;;;;;;;5052445;28;20359;-42
2023/05/25 06:07:40;;;;;;;6.82;3.05;;;;;;;;;;5053745;28;20020;-42
2023/05/25 06:10:06;;;;;;;6.82;3.10;;;;;;;;;;5053764;28;20017;-43
2023/05/25 06:12:32;;;;;;;5.80;2.92;;;;;;;;;;5053898;28;20025;-42
2023/05/25 06:14:58;;;;;;;5.60;3.08;;;;;;;;;;5053574;28;20462;-42
2023/05/25 06:17:24;;;;;;;5.45;3.05;;;;;;;;;;5053493;28;20021;-42
2023/05/25 06:19:50;;;;;;;6.88;3.33;;;;;;;;;;5053394;28;20021;-42
2023/05/25 06:22:16;;;;;;;7.15;2.85;;;;;;;;;;5053381;28;20029;-45
2023/05/25 06:24:42;;;;;;;8.23;3.42;;;;;;;;;;5053274;28;20492;-42
2023/05/25 06:27:08;;;;;;;8.55;3.08;;;;;;;;;;5053224;28;20036;-42
2023/05/25 06:29:34;;;;;;;5.05;2.80;;;;;;;;;;5052618;28;20025;-41
2023/05/25 06:32:00;;;;;;;9.68;3.22;;;;;;;;;;5053214;28;20020;-42
2023/05/25 06:34:26;;;;;;;6.05;3.03;;;;;;;;;;5053196;28;20028;-43
2023/05/25 06:36:52;;;;;;;7.18;2.88;;;;;;;;;;5052983;28;20025;-43
2023/05/25 06:39:19;;;;;;;7.03;3.13;;;;;;;;;;5051771;28;20144;-42
2023/05/25 06:41:45;;;;;;;6.35;2.95;;;;;;;;;;5052929;28;20097;-43
2023/05/25 06:44:11;;;;;;;7.32;2.78;;;;;;;;;;5052958;28;20142;-43
2023/05/25 06:46:38;;;;;;;8.07;3.40;;;;;;;;;;5035154;28;20125;-43
2023/05/25 06:49:04;;;;;;;8.20;2.90;;;;;;;;;;5052700;28;20588;-42
2023/05/25 06:51:30;;;;;;;6.40;3.05;;;;;;;;;;5052782;28;20024;-42
2023/05/25 06:53:56;;;;;;;7.80;3.05;;;;;;;;;;5052889;28;20385;-42
2023/05/25 06:56:22;;;;;;;9.75;3.10;;;;;;;;;;5052701;28;20031;-42
2023/05/25 06:58:51;;;;;;;8.95;3.33;;;;;;;;;;5051545;28;20367;-42
2023/05/25 07:01:17;;;;;;;6.95;2.72;;;;;;;;;;5052545;28;20021;-42
2023/05/25 07:03:43;;;;;;;8.63;2.97;;;;;;;;;;5052605;28;20466;-42
2023/05/25 07:06:11;;;;;;;10.40;3.08;;;;;;;;;;5052635;28;20031;-42
2023/05/25 07:08:36;;;;;;;8.45;3.22;;;;;;;;;;5052405;28;20067;-41
2023/05/25 07:11:02;;;;;;;10.13;3.25;;;;;;;;;;5052547;28;20021;-42
2023/05/25 07:13:28;;;;;;;8.00;3.28;;;;;;;;;;5051026;28;20064;-42
2023/05/25 07:15:55;;;;;;;9.73;3.20;;;;;;;;;;5052360;28;20063;-41
2023/05/25 07:18:20;;;;;;;7.25;3.30;;;;;;;;;;5052492;28;20021;-42
2023/05/25 07:20:47;;;;;;;8.20;3.10;;;;;;;;;;5052364;28;20043;-42
2023/05/25 07:23:13;;;;;;;8.93;3.25;;;;;;;;;;5052037;28;20119;-42
2023/05/25 07:25:38;;;;;;;7.28;3.00;;;;;;;;;;5052025;28;20103;-42
2023/05/25 07:28:05;;;;;;;8.10;3.88;;;;;;;;;;5051994;28;20087;-42
2023/05/25 07:30:31;;;;;;;9.00;3.55;;;;;;;;;;5052032;28;20393;-42
2023/05/25 07:32:57;;;;;;;12.07;3.33;;;;;;;;;;5052015;28;20028;-41
2023/05/25 07:35:24;;;;;;;9.27;3.30;;;;;;;;;;5051785;28;20029;-42
2023/05/25 07:37:57;;;;;;;7.95;3.38;;;;;;;;;;5051776;28;20063;-42
2023/05/25 07:40:23;;;;;;;7.88;3.13;;;;;;;;;;5050052;28;20104;-43
2023/05/25 07:42:49;;;;;;;7.32;3.20;;;;;;;;;;5051919;28;20068;-42
2023/05/25 07:45:15;;;;;;;9.05;3.10;;;;;;;;;;5051758;28;20028;-42
2023/05/25 07:47:41;;;;;;;7.72;3.75;;;;;;;;;;5051647;28;20466;-42
2023/05/25 07:50:07;;;;;;;10.38;3.90;;;;;;;;;;5052002;28;20017;-42
2023/05/25 07:52:33;;;;;;;9.02;3.67;;;;;;;;;;5052424;28;20029;-42
2023/05/25 07:54:59;;;;;;;8.65;3.78;;;;;;;;;;5051771;28;20032;-42
2023/05/25 07:57:25;;;;;;;9.45;3.80;;;;;;;;;;5051632;28;20070;-42
2023/05/25 07:59:51;;;;;;;10.75;3.83;;;;;;;;;;5050523;28;20040;-42
2023/05/25 08:02:17;;;;;;;8.43;3.50;;;;;;;;;;5051486;28;20033;-42
2023/05/25 08:04:43;;;;;;;13.27;3.85;;;;;;;;;;5051639;28;20025;-43
2023/05/25 08:07:10;;;;;;;11.70;3.85;;;;;;;;;;5051625;28;20017;-43
2023/05/25 08:09:36;;;;;;;8.25;3.35;;;;;;;;;;5051564;28;20013;-42
2023/05/25 08:12:02;;;;;;;9.25;3.40;;;;;;;;;;5051615;28;20116;-42
2023/05/25 08:14:28;;;;;;;8.15;3.38;;;;;;;;;;5051494;28;20135;-43
2023/05/25 08:16:54;;;;;;;11.23;3.45;;;;;;;;;;5051525;28;20485;-43
2023/05/25 08:19:20;;;;;;;9.63;3.10;;;;;;;;;;5050263;28;20417;-42
2023/05/25 08:21:46;;;;;;;10.40;3.75;;;;;;;;;;5051218;28;20029;-42
2023/05/25 08:24:11;;;;;;;8.57;3.65;;;;;;;;;;5050929;28;20028;-42
2023/05/25 08:26:39;;;;;;;9.88;4.25;;;;;;;;;;5051773;28;20036;-44
2023/05/25 08:29:05;;;;;;;14.00;4.07;;;;;;;;;;5051464;28;20025;-42
2023/05/25 08:31:31;;;;;;;10.77;3.80;;;;;;;;;;5051443;28;20061;-42
2023/05/25 08:33:58;;;;;;;10.68;3.85;;;;;;;;;;5051522;28;20508;-43
2023/05/25 08:36:25;;;;;;;6.57;3.33;;;;;;;;;;5051630;28;20017;-42
2023/05/25 08:38:51;;;;;;;10.45;3.75;;;;;;;;;;5051223;28;20025;-43
2023/05/25 08:41:17;;;;;;;12.75;4.05;;;;;;;;;;5051497;28;20029;-43
2023/05/25 08:43:43;;;;;;;9.93;3.10;;;;;;;;;;5051475;28;20017;-42
2023/05/25 08:46:09;;;;;;;10.13;3.40;;;;;;;;;;5051296;28;20529;-42
2023/05/25 08:48:36;;;;;;;11.07;3.80;;;;;;;;;;5051140;28;20489;-42
2023/05/25 08:51:09;;;;;;;8.23;3.28;;;;;;;;;;5052279;28;20025;-42
2023/05/25 08:53:36;;;;;;;7.65;3.65;;;;;;;;;;5055119;28;20163;-42
2023/05/25 08:56:06;;;;;;;11.60;3.63;;;;;;;;;;5054952;28;20029;-42
2023/05/25 08:58:33;;;;;;;9.50;3.17;;;;;;;;;;5055036;28;20032;-42
2023/05/25 09:01:02;;;;;;;7.63;3.58;;;;;;;;;;5054936;28;20029;-42
2023/05/25 09:03:29;;;;;;;9.40;3.47;;;;;;;;;;5054924;28;20048;-42
2023/05/25 09:05:56;;;;;;;9.75;3.50;;;;;;;;;;5054695;28;20024;-42
2023/05/25 09:08:23;;;;;;;9.38;3.53;;;;;;;;;;5055078;28;20033;-42
2023/05/25 09:10:49;;;;;;;8.43;3.30;;;;;;;;;;5054776;28;20029;-42
2023/05/25 09:13:15;;;;;;;8.27;3.50;;;;;;;;;;5054829;28;20548;-42
2023/05/25 09:15:41;;;;;;;9.55;3.40;;;;;;;;;;5054587;28;20032;-42
2023/05/25 09:18:07;;;;;;;10.95;4.20;;;;;;;;;;5054584;28;20025;-42
2023/05/25 09:20:33;;;;;;;7.50;3.53;;;;;;;;;;5054527;28;20037;-42
2023/05/25 09:22:59;;;;;;;13.82;3.75;;;;;;;;;;5054408;28;20039;-43
2023/05/25 09:25:26;;;;;;;9.05;3.42;;;;;;;;;;5053164;28;20017;-42
2023/05/25 09:27:52;;;;;;;10.20;3.58;;;;;;;;;;5054392;28;20036;-42
2023/05/25 09:30:19;;;;;;;10.77;3.75;;;;;;;;;;5054562;28;20441;-42
2023/05/25 09:32:44;;;;;;;13.38;4.00;;;;;;;;;;5054521;28;20028;-42
2023/05/25 09:35:12;;;;;;;11.23;3.90;;;;;;;;;;5054418;28;20025;-42
2023/05/25 09:37:38;;;;;;;9.32;3.70;;;;;;;;;;5054118;28;20142;-42
2023/05/25 09:40:05;;;;;;;8.45;3.67;;;;;;;;;;5054000;28;20513;-42
2023/05/25 09:42:34;;;;;;;11.85;4.20;;;;;;;;;;5053661;28;20104;-42
2023/05/25 09:45:00;;;;;;;16.67;4.38;;;;;;;;;;5051320;28;20598;-42
2023/05/25 09:47:26;;;;;;;9.93;3.63;;;;;;;;;;5054093;28;20025;-42
2023/05/25 09:49:53;;;;;;;10.18;3.63;;;;;;;;;;5053974;28;20021;-42
2023/05/25 09:52:19;;;;;;;12.50;4.07;;;;;;;;;;5054202;28;20044;-43
2023/05/25 09:54:45;;;;;;;12.85;3.97;;;;;;;;;;5053961;28;20021;-43
2023/05/25 09:57:11;;;;;;;11.25;4.07;;;;;;;;;;5053823;28;20424;-42
2023/05/25 09:59:37;;;;;;;8.40;3.88;;;;;;;;;;5053862;28;20083;-43
2023/05/25 10:02:03;;;;;;;10.15;4.50;;;;;;;;;;5053541;28;20031;-43
2023/05/25 10:04:29;;;;;;;12.57;3.78;;;;;;;;;;5053106;28;20437;-42
2023/05/25 10:06:56;;;;;;;9.77;4.07;;;;;;;;;;5053548;28;20021;-43
2023/05/25 10:09:24;;;;;;;9.35;3.95;;;;;;;;;;5053431;28;20025;-43
2023/05/25 10:11:51;;;;;;;10.00;3.70;;;;;;;;;;5053384;28;20028;-42
2023/05/25 10:14:23;;;;;;;10.10;3.60;;;;;;;;;;5053389;28;20025;-43
2023/05/25 10:16:52;;;;;;;11.82;3.40;;;;;;;;;;5053562;28;20445;-43
2023/05/25 10:19:30;;;;;;;9.98;3.50;;;;;;;;;;5053567;28;20041;-43
2023/05/25 10:22:15;;;;;;;11.93;5.28;;;;;;;;;;5053071;28;20547;-43
2023/05/25 10:24:56;;;;;;;10.20;3.70;;;;;;;;;;5053171;28;20106;-43
2023/05/25 10:27:23;;;;;;;11.05;3.58;;;;;;;;;;5053191;28;20021;-42
2023/05/25 10:29:49;;;;;;;10.98;4.05;;;;;;;;;;5053086;28;20028;-42
2023/05/25 10:32:16;;;;;;;8.10;3.47;;;;;;;;;;5053275;28;20029;-42
2023/05/25 10:34:42;;;;;;;9.45;3.78;;;;;;;;;;5053114;28;20047;-42
2023/05/25 10:37:08;;;;;;;11.65;4.65;;;;;;;;;;5053232;28;20087;-42
2023/05/25 10:39:35;;;;;;;9.43;3.92;;;;;;;;;;5052993;28;20057;-43
2023/05/25 10:42:02;;;;;;;8.43;3.53;;;;;;;;;;5053361;28;20036;-46
2023/05/25 10:44:28;;;;;;;10.70;4.15;;;;;;;;;;5052930;28;20482;-43
2023/05/25 10:46:54;;;;;;;8.98;4.05;;;;;;;;;;5051519;28;20021;-43
2023/05/25 10:49:32;;;;;;;12.13;4.10;;;;;;;;;;5052684;28;20031;-43
2023/05/25 10:51:58;;;;;;;15.65;4.80;;;;;;;;;;5052575;28;20055;-43
2023/05/25 10:54:28;;;;;;;15.35;4.47;;;;;;;;;;5052534;28;20053;-43
2023/05/25 10:57:33;;;;;;;13.43;4.38;;;;;;;;;;5052605;28;20479;-43
2023/05/25 11:00:05;;;;;;;15.57;5.50;;;;;;;;;;5030427;28;20029;-42
2023/05/25 11:02:31;;;;;;;;;;;;;;;;;;5030739;28;20482;-42
2023/05/25 11:05:15;;;;;;;15.63;5.32;;;;;;;;;;5041623;28;19931;-43
2023/05/25 11:07:57;;;;;;;16.30;6.28;;;;;;;;;;5051096;28;20029;-43
2023/05/25 11:10:42;;;;;;;17.38;5.88;;;;;;;;;;5052537;28;20124;-41
2023/05/25 11:13:27;;;;;;;14.48;6.15;;;;;;;;;;5052178;28;20029;-42
2023/05/25 11:16:11;;;;;;;15.95;6.55;;;;;;;;;;5052217;28;20036;-42
2023/05/25 11:18:40;;;;;;;15.23;6.57;;;;;;;;;;5052249;28;20057;-42
2023/05/25 11:21:12;;;;;;;16.73;6.80;;;;;;;;;;5052029;28;20032;-42
2023/05/25 11:23:51;;;;;;;16.60;7.18;;;;;;;;;;5051978;28;20025;-42
2023/05/25 11:26:20;;;;;;;16.10;7.90;;;;;;;;;;5052168;28;20024;-42
2023/05/25 11:28:46;;;;;;;17.38;7.20;;;;;;;;;;5052062;28;20434;-42
2023/05/25 11:31:12;;;;;;;17.63;7.90;;;;;;;;;;5051837;28;20470;-42
2023/05/25 11:33:40;;;;;;;20.13;7.25;;;;;;;;;;5051942;28;20032;-42
2023/05/25 11:36:06;;;;;;;17.17;7.82;;;;;;;;;;5051833;28;20025;-42
2023/05/25 11:38:34;;;;;;;15.60;7.30;;;;;;;;;;5051698;28;20432;-42
2023/05/25 11:41:02;;;;;;;15.82;7.45;;;;;;;;;;5051608;28;20059;-42
2023/05/25 11:43:31;;;;;;;15.68;7.63;;;;;;;;;;5051723;28;20132;-42
2023/05/25 11:45:59;;;;;;;20.17;9.55;;;;;;;;;;5051730;28;20036;-42
2023/05/25 11:48:25;;;;;;;19.23;7.68;;;;;;;;;;5051525;28;20018;-41
2023/05/25 11:51:03;;;;;;;20.90;7.78;;;;;;;;;;5051722;28;20052;-43
2023/05/25 11:53:29;;;;;;;22.55;7.75;;;;;;;;;;5051532;28;20029;-42
2023/05/25 11:55:55;;;;;;;19.63;8.30;;;;;;;;;;5051616;28;20086;-42
2023/05/25 11:58:21;;;;;;;14.98;7.40;;;;;;;;;;5051647;28;20029;-42
2023/05/25 12:00:47;;;;;;;20.85;8.63;;;;;;;;;;5051639;28;20033;-42
2023/05/25 12:03:30;;;;;;;17.92;7.90;;;;;;;;;;5051736;28;20025;-42
2023/05/25 12:05:56;;;;;;;12.75;7.60;;;;;;;;;;5051324;28;20075;-41
2023/05/25 12:08:35;;;;;;;16.27;7.85;;;;;;;;;;5051476;28;20024;-41
2023/05/25 12:11:02;;;;;;;15.65;6.97;;;;;;;;;;5051338;28;20025;-42
2023/05/25 12:13:28;;;;;;;17.75;8.20;;;;;;;;;;5051321;28;20477;-42
2023/05/25 12:15:59;;;;;;;17.35;8.20;;;;;;;;;;5051591;28;20059;-44
2023/05/25 12:18:27;;;;;;;15.88;7.43;;;;;;;;;;5051515;28;20120;-42
2023/05/25 12:20:53;;;;;;;20.23;8.93;;;;;;;;;;5051321;28;20374;-42
2023/05/25 12:23:19;;;;;;;15.75;7.55;;;;;;;;;;5051144;28;20020;-42
2023/05/25 12:25:45;;;;;;;14.38;6.95;;;;;;;;;;5051694;28;20021;-43
2023/05/25 12:28:11;;;;;;;15.70;6.85;;;;;;;;;;5055432;28;20106;-43
2023/05/25 12:30:37;;;;;;;20.45;7.43;;;;;;;;;;5055296;28;20024;-43
2023/05/25 12:33:03;;;;;;;18.30;7.57;;;;;;;;;;5055337;28;20465;-43
2023/05/25 12:35:29;;;;;;;16.13;7.68;;;;;;;;;;5055179;28;20107;-43
2023/05/25 12:38:11;;;;;;;16.55;7.85;;;;;;;;;;5055203;28;20104;-43
2023/05/25 12:40:37;;;;;;;15.65;7.05;;;;;;;;;;5054880;28;20052;-42
2023/05/25 12:43:03;;;;;;;17.83;8.15;;;;;;;;;;5054974;28;20033;-42
2023/05/25 12:45:29;;;;;;;18.52;7.47;;;;;;;;;;5055141;28;20032;-41
2023/05/25 12:47:55;;;;;;;17.98;7.53;;;;;;;;;;5054945;28;20300;-41
2023/05/25 12:50:21;;;;;;;14.15;7.25;;;;;;;;;;5054996;28;20034;-42
2023/05/25 12:52:47;;;;;;;20.48;7.45;;;;;;;;;;5054817;28;20017;-42
2023/05/25 12:55:26;;;;;;;18.35;7.47;;;;;;;;;;5054851;28;20036;-42
2023/05/25 12:57:57;;;;;;;16.65;7.65;;;;;;;;;;5054777;28;20025;-42
2023/05/25 13:00:27;;;;;;;17.80;7.20;;;;;;;;;;5054889;28;20115;-42
2023/05/25 13:02:53;;;;;;;20.90;8.95;;;;;;;;;;5054613;28;20025;-42
2023/05/25 13:05:22;;;;;;;16.52;8.07;;;;;;;;;;5055035;28;20025;-42
2023/05/25 13:07:48;;;;;;;19.58;8.05;;;;;;;;;;5054567;28;20488;-42
2023/05/25 13:10:18;;;;;;;17.50;7.88;;;;;;;;;;5053388;28;20065;-42
2023/05/25 13:12:44;;;;;;;20.05;8.18;;;;;;;;;;5054536;28;20029;-42
2023/05/25 13:15:11;;;;;;;16.73;7.65;;;;;;;;;;5053201;28;20025;-42
2023/05/25 13:17:37;;;;;;;19.20;8.07;;;;;;;;;;5054402;28;20044;-41
2023/05/25 13:20:03;;;;;;;20.25;8.27;;;;;;;;;;5054281;28;20478;-42
2023/05/25 13:22:29;;;;;;;19.73;7.38;;;;;;;;;;5054287;28;20021;-42
2023/05/25 13:24:55;;;;;;;16.20;6.90;;;;;;;;;;5054330;28;20040;-42
2023/05/25 13:27:22;;;;;;;19.70;7.40;;;;;;;;;;5054223;28;20025;-42
2023/05/25 13:29:48;;;;;;;18.05;8.00;;;;;;;;;;5054276;28;20025;-42
2023/05/25 13:32:14;;;;;;;17.20;7.60;;;;;;;;;;5052836;28;20122;-42
2023/05/25 13:34:40;;;;;;;18.95;8.05;;;;;;;;;;5054117;28;20025;-42
2023/05/25 13:37:06;;;;;;;16.88;8.25;;;;;;;;;;5053521;28;20147;-41
2023/05/25 13:39:31;;;;;;;18.92;8.00;;;;;;;;;;5053248;28;20056;-41
2023/05/25 13:41:58;;;;;;;21.63;8.32;;;;;;;;;;5053886;28;20049;-42
2023/05/25 13:44:24;;;;;;;25.52;9.13;;;;;;;;;;5054092;28;20025;-42
2023/05/25 13:46:50;;;;;;;26.60;9.98;;;;;;;;;;5054169;28;20029;-42
2023/05/25 13:49:18;;;;;;;25.77;10.07;;;;;;;;;;5053777;28;20377;-42
2023/05/25 13:51:44;;;;;;;34.17;11.18;;;;;;;;;;5052888;28;20025;-42
2023/05/25 13:54:11;;;;;;;27.58;8.90;;;;;;;;;;5052576;28;20047;-42
2023/05/25 13:56:37;;;;;;;29.90;11.05;;;;;;;;;;5053994;28;20087;-42
2023/05/25 13:59:03;;;;;;;31.38;10.60;;;;;;;;;;5053685;28;20017;-42
2023/05/25 14:01:31;;;;;;;33.75;11.90;;;;;;;;;;5053284;28;20041;-42
2023/05/25 14:03:58;;;;;;;28.05;10.73;;;;;;;;;;5053448;28;20021;-42
2023/05/25 14:06:24;;;;;;;32.85;10.88;;;;;;;;;;5053423;28;20025;-42
2023/05/25 14:08:50;;;;;;;34.30;12.70;;;;;;;;;;5053439;28;20027;-43
2023/05/25 14:11:16;;;;;;;27.42;10.82;;;;;;;;;;5053485;28;20024;-42
2023/05/25 14:13:42;;;;;;;28.10;10.73;;;;;;;;;;5053169;28;20025;-43
2023/05/25 14:16:08;;;;;;;31.85;11.23;;;;;;;;;;5053184;28;20033;-40
2023/05/25 14:18:34;;;;;;;31.95;10.52;;;;;;;;;;5053360;28;20021;-42
2023/05/25 14:21:00;;;;;;;22.70;10.05;;;;;;;;;;5053257;28;20036;-41
2023/05/25 14:23:26;;;;;;;26.58;9.60;;;;;;;;;;5053175;28;20035;-42
2023/05/25 14:25:52;;;;;;;25.95;10.13;;;;;;;;;;5053145;28;20051;-41
2023/05/25 14:28:18;;;;;;;27.55;10.02;;;;;;;;;;5053137;28;20100;-42
2023/05/25 14:30:44;;;;;;;24.73;10.05;;;;;;;;;;5053020;28;20032;-43
2023/05/25 14:33:12;;;;;;;33.55;9.45;;;;;;;;;;5053069;28;20373;-42
2023/05/25 14:35:40;;;;;;;27.23;10.38;;;;;;;;;;5052909;28;20021;-43
2023/05/25 14:38:06;;;;;;;23.17;9.30;;;;;;;;;;5053065;28;20493;-43